sensor_id;sensor_type;location;lat;lon;timestamp;pressure;altitude;pressure_sealevel;temperature;humidity
75312;BME280;63906;55.686;37.532;2023-03-05T00:01:38;96597.25;;;-1.08;76.19
75312;BME280;63906;55.686;37.532;2023-03-05T00:06:39;96615.53;;;-1.10;76.26
75312;BME280;63906;55.686;37.532;2023-03-05T00:11:39;96607.78;;;-1.10;76.12
75312;BME280;63906;55.686;37.532;2023-03-05T00:16:40;96612.13;;;-1.17;75.81
75312;BME280;63906;55.686;37.532;2023-03-05T00:21:41;96624.03;;;-1.16;76.52
75312;BME280;63906;55.686;37.532;2023-03-05T00:26:43;96597.00;;;-1.20;76.80
75312;BME280;63906;55.686;37.532;2023-03-05T00:31:44;96594.28;;;-1.12;75.95
75312;BME280;63906;55.686;37.532;2023-03-05T00:36:47;96616.44;;;-1.24;76.17
75312;BME280;63906;55.686;37.532;2023-03-05T00:41:48;96617.31;;;-1.10;76.91
75312;BME280;63906;55.686;37.532;2023-03-05T00:46:49;96597.28;;;-1.01;75.05
75312;BME280;63906;55.686;37.532;2023-03-05T00:51:49;96615.44;;;-1.23;76.40
75312;BME280;63906;55.686;37.532;2023-03-05T00:56:50;96619.06;;;-1.17;76.17
75312;BME280;63906;55.686;37.532;2023-03-05T01:01:50;96607.31;;;-1.20;76.26
75312;BME280;63906;55.686;37.532;2023-03-05T01:06:51;96608.88;;;-1.25;76.06
75312;BME280;63906;55.686;37.532;2023-03-05T01:11:52;96607.25;;;-1.33;76.41
75312;BME280;63906;55.686;37.532;2023-03-05T01:16:53;96586.53;;;-1.46;75.83
75312;BME280;63906;55.686;37.532;2023-03-05T01:21:54;96614.44;;;-1.28;75.55
75312;BME280;63906;55.686;37.532;2023-03-05T01:26:54;96628.34;;;-1.23;75.13
75312;BME280;63906;55.686;37.532;2023-03-05T01:31:55;96613.41;;;-1.34;74.07
75312;BME280;63906;55.686;37.532;2023-03-05T01:36:55;96591.63;;;-1.81;74.93
75312;BME280;63906;55.686;37.532;2023-03-05T01:41:56;96588.94;;;-1.73;75.42
75312;BME280;63906;55.686;37.532;2023-03-05T01:46:56;96621.22;;;-1.77;75.29
75312;BME280;63906;55.686;37.532;2023-03-05T01:57:06;96602.56;;;-2.00;75.19
75312;BME280;63906;55.686;37.532;2023-03-05T02:02:08;96558.91;;;-2.30;75.69
75312;BME280;63906;55.686;37.532;2023-03-05T02:07:09;96590.16;;;-2.11;75.15
75312;BME280;63906;55.686;37.532;2023-03-05T02:12:11;96588.72;;;-2.21;75.20
75312;BME280;63906;55.686;37.532;2023-03-05T02:17:13;96609.25;;;-2.06;75.50
75312;BME280;63906;55.686;37.532;2023-03-05T02:22:16;96586.75;;;-2.19;75.45
75312;BME280;63906;55.686;37.532;2023-03-05T02:27:20;96589.84;;;-2.30;76.41
75312;BME280;63906;55.686;37.532;2023-03-05T02:32:21;96606.00;;;-2.14;75.94
75312;BME280;63906;55.686;37.532;2023-03-05T02:37:22;96531.44;;;-2.44;75.07
75312;BME280;63906;55.686;37.532;2023-03-05T02:42:22;96577.91;;;-2.31;75.98
75312;BME280;63906;55.686;37.532;2023-03-05T02:47:23;96579.53;;;-2.30;76.24
75312;BME280;63906;55.686;37.532;2023-03-05T02:52:23;96599.38;;;-2.24;76.56
75312;BME280;63906;55.686;37.532;2023-03-05T02:57:24;96588.66;;;-2.27;77.09
75312;BME280;63906;55.686;37.532;2023-03-05T03:02:25;96599.75;;;-2.27;76.19
75312;BME280;63906;55.686;37.532;2023-03-05T03:07:25;96570.19;;;-2.52;77.49
75312;BME280;63906;55.686;37.532;2023-03-05T03:12:26;96582.19;;;-2.38;77.76
75312;BME280;63906;55.686;37.532;2023-03-05T03:17:26;96587.03;;;-2.50;78.18
75312;BME280;63906;55.686;37.532;2023-03-05T03:22:27;96577.16;;;-2.25;77.45
75312;BME280;63906;55.686;37.532;2023-03-05T03:27:28;96552.41;;;-2.47;77.46
75312;BME280;63906;55.686;37.532;2023-03-05T03:32:28;96585.88;;;-2.47;78.51
75312;BME280;63906;55.686;37.532;2023-03-05T03:37:29;96588.94;;;-2.37;78.39
75312;BME280;63906;55.686;37.532;2023-03-05T03:42:30;96569.50;;;-2.39;78.63
75312;BME280;63906;55.686;37.532;2023-03-05T03:47:30;96563.75;;;-2.20;78.72
75312;BME280;63906;55.686;37.532;2023-03-05T03:52:31;96574.97;;;-2.06;79.52
75312;BME280;63906;55.686;37.532;2023-03-05T03:57:31;96539.69;;;-2.49;78.97
75312;BME280;63906;55.686;37.532;2023-03-05T04:02:35;96578.91;;;-2.10;79.66
75312;BME280;63906;55.686;37.532;2023-03-05T04:07:35;96574.59;;;-2.03;79.41
75312;BME280;63906;55.686;37.532;2023-03-05T04:12:36;96574.97;;;-2.06;80.23
75312;BME280;63906;55.686;37.532;2023-03-05T04:17:36;96571.97;;;-2.10;80.09
75312;BME280;63906;55.686;37.532;2023-03-05T04:22:37;96567.13;;;-1.98;79.53
75312;BME280;63906;55.686;37.532;2023-03-05T04:27:37;96556.22;;;-2.22;78.70
75312;BME280;63906;55.686;37.532;2023-03-05T04:32:40;96573.91;;;-2.12;79.58
75312;BME280;63906;55.686;37.532;2023-03-05T04:37:40;96560.59;;;-1.94;78.07
75312;BME280;63906;55.686;37.532;2023-03-05T04:42:41;96557.31;;;-2.09;79.11
75312;BME280;63906;55.686;37.532;2023-03-05T04:47:42;96572.78;;;-1.81;78.62
75312;BME280;63906;55.686;37.532;2023-03-05T04:52:43;96603.66;;;-1.67;77.62
75312;BME280;63906;55.686;37.532;2023-03-05T04:57:44;96572.47;;;-1.72;77.08
75312;BME280;63906;55.686;37.532;2023-03-05T05:02:47;96569.66;;;-1.77;77.07
75312;BME280;63906;55.686;37.532;2023-03-05T05:07:48;96600.16;;;-1.52;76.56
75312;BME280;63906;55.686;37.532;2023-03-05T05:12:48;96589.81;;;-1.59;77.11
75312;BME280;63906;55.686;37.532;2023-03-05T05:17:49;96577.78;;;-1.45;76.20
75312;BME280;63906;55.686;37.532;2023-03-05T05:22:50;96588.28;;;-1.53;76.81
75312;BME280;63906;55.686;37.532;2023-03-05T05:27:50;96609.59;;;-1.38;76.82
75312;BME280;63906;55.686;37.532;2023-03-05T05:32:51;96577.78;;;-1.45;76.36
75312;BME280;63906;55.686;37.532;2023-03-05T05:37:51;96587.78;;;-1.36;75.52
75312;BME280;63906;55.686;37.532;2023-03-05T05:42:52;96578.75;;;-1.18;75.41
75312;BME280;63906;55.686;37.532;2023-03-05T05:47:53;96601.63;;;-1.09;75.37
75312;BME280;63906;55.686;37.532;2023-03-05T05:52:53;96607.28;;;-0.92;76.49
75312;BME280;63906;55.686;37.532;2023-03-05T05:57:54;96612.13;;;-0.69;75.17
75312;BME280;63906;55.686;37.532;2023-03-05T06:02:54;96553.59;;;-1.10;75.14
75312;BME280;63906;55.686;37.532;2023-03-05T06:07:55;96610.72;;;-0.78;75.94
75312;BME280;63906;55.686;37.532;2023-03-05T06:12:55;96607.53;;;-0.80;76.82
75312;BME280;63906;55.686;37.532;2023-03-05T06:17:58;96618.34;;;-0.57;76.65
75312;BME280;63906;55.686;37.532;2023-03-05T06:22:58;96614.56;;;-0.61;77.17
75312;BME280;63906;55.686;37.532;2023-03-05T06:27:59;96622.72;;;-0.50;76.76
75312;BME280;63906;55.686;37.532;2023-03-05T06:33:00;96629.44;;;-0.63;77.26
75312;BME280;63906;55.686;37.532;2023-03-05T06:38:00;96610.28;;;-0.82;77.15
75312;BME280;63906;55.686;37.532;2023-03-05T06:43:01;96610.47;;;-0.90;77.64
75312;BME280;63906;55.686;37.532;2023-03-05T06:48:01;96634.69;;;-0.91;78.17
75312;BME280;63906;55.686;37.532;2023-03-05T06:53:02;96647.69;;;-0.71;77.92
75312;BME280;63906;55.686;37.532;2023-03-05T06:58:03;96638.94;;;-0.70;78.37
75312;BME280;63906;55.686;37.532;2023-03-05T07:03:03;96659.28;;;-0.53;77.88
75312;BME280;63906;55.686;37.532;2023-03-05T07:08:04;96660.47;;;-0.56;77.17
75312;BME280;63906;55.686;37.532;2023-03-05T07:13:05;96656.50;;;-0.59;77.59
75312;BME280;63906;55.686;37.532;2023-03-05T07:18:06;96675.31;;;-0.71;77.86
75312;BME280;63906;55.686;37.532;2023-03-05T07:23:07;96662.38;;;-0.71;78.84
75312;BME280;63906;55.686;37.532;2023-03-05T07:28:08;96659.53;;;-0.83;78.90
75312;BME280;63906;55.686;37.532;2023-03-05T07:33:09;96667.00;;;-0.67;78.85
75312;BME280;63906;55.686;37.532;2023-03-05T07:38:10;96693.47;;;-0.51;78.84
75312;BME280;63906;55.686;37.532;2023-03-05T07:43:10;96676.31;;;-0.66;78.63
75312;BME280;63906;55.686;37.532;2023-03-05T07:48:13;96690.81;;;-0.71;78.75
75312;BME280;63906;55.686;37.532;2023-03-05T07:53:14;96717.00;;;-0.33;78.55
75312;BME280;63906;55.686;37.532;2023-03-05T07:58:15;96703.84;;;-0.45;78.27
75312;BME280;63906;55.686;37.532;2023-03-05T08:03:15;96725.16;;;-0.36;77.53
75312;BME280;63906;55.686;37.532;2023-03-05T08:08:16;96736.84;;;-0.40;77.24
75312;BME280;63906;55.686;37.532;2023-03-05T08:13:17;96746.25;;;-0.26;77.52
75312;BME280;63906;55.686;37.532;2023-03-05T08:18:18;96752.06;;;-0.24;77.00
75312;BME280;63906;55.686;37.532;2023-03-05T08:23:18;96751.66;;;-0.21;77.19
75312;BME280;63906;55.686;37.532;2023-03-05T08:28:19;96774.75;;;-0.13;77.35
75312;BME280;63906;55.686;37.532;2023-03-05T08:33:20;96778.94;;;-0.12;77.39
75312;BME280;63906;55.686;37.532;2023-03-05T08:38:20;96779.22;;;0.07;76.42
75312;BME280;63906;55.686;37.532;2023-03-05T08:43:21;96776.47;;;0.21;76.82
75312;BME280;63906;55.686;37.532;2023-03-05T08:48:22;96783.72;;;0.46;75.54
75312;BME280;63906;55.686;37.532;2023-03-05T08:53:23;96796.84;;;0.44;75.37
75312;BME280;63906;55.686;37.532;2023-03-05T08:58:23;96795.63;;;0.40;75.02
75312;BME280;63906;55.686;37.532;2023-03-05T09:03:24;96795.16;;;0.17;75.06
75312;BME280;63906;55.686;37.532;2023-03-05T09:08:25;96812.91;;;0.20;75.08
75312;BME280;63906;55.686;37.532;2023-03-05T09:13:26;96834.22;;;0.29;75.24
75312;BME280;63906;55.686;37.532;2023-03-05T09:18:27;96818.66;;;0.22;74.61
75312;BME280;63906;55.686;37.532;2023-03-05T09:23:27;96828.34;;;0.00;74.71
75312;BME280;63906;55.686;37.532;2023-03-05T09:28:28;96854.59;;;0.04;75.75
75312;BME280;63906;55.686;37.532;2023-03-05T09:33:30;96848.19;;;-0.01;75.44
75312;BME280;63906;55.686;37.532;2023-03-05T09:38:31;96866.72;;;0.03;75.60
75312;BME280;63906;55.686;37.532;2023-03-05T09:48:53;96870.41;;;0.29;75.45
75312;BME280;63906;55.686;37.532;2023-03-05T09:54:06;96900.38;;;0.51;74.22
75312;BME280;63906;55.686;37.532;2023-03-05T10:04:57;96910.28;;;0.41;74.08
75312;BME280;63906;55.686;37.532;2023-03-05T10:09:45;96926.16;;;0.31;74.38
75312;BME280;63906;55.686;37.532;2023-03-05T10:14:48;96903.34;;;0.07;74.64
75312;BME280;63906;55.686;37.532;2023-03-05T10:25:38;96955.00;;;0.28;73.43
75312;BME280;63906;55.686;37.532;2023-03-05T10:30:52;96963.50;;;0.22;72.72
75312;BME280;63906;55.686;37.532;2023-03-05T10:41:28;96978.16;;;0.08;73.17
75312;BME280;63906;55.686;37.532;2023-03-05T10:46:36;96973.44;;;0.18;73.66
75312;BME280;63906;55.686;37.532;2023-03-05T10:51:42;96981.38;;;0.17;72.11
75312;BME280;63906;55.686;37.532;2023-03-05T10:56:45;97003.09;;;0.22;73.14
75312;BME280;63906;55.686;37.532;2023-03-05T11:02:01;96974.44;;;-0.11;72.18
75312;BME280;63906;55.686;37.532;2023-03-05T11:07:30;97021.97;;;0.16;72.27
75312;BME280;63906;55.686;37.532;2023-03-05T11:12:37;97026.28;;;0.09;72.64
75312;BME280;63906;55.686;37.532;2023-03-05T11:17:39;97020.69;;;0.06;71.98
75312;BME280;63906;55.686;37.532;2023-03-05T11:22:49;97039.72;;;0.19;71.47
75312;BME280;63906;55.686;37.532;2023-03-05T11:28:02;97056.53;;;0.09;72.32
75312;BME280;63906;55.686;37.532;2023-03-05T11:33:15;97061.09;;;-0.15;71.83
75312;BME280;63906;55.686;37.532;2023-03-05T11:38:22;97079.50;;;-0.24;73.23
75312;BME280;63906;55.686;37.532;2023-03-05T11:43:24;97088.59;;;-0.29;73.37
75312;BME280;63906;55.686;37.532;2023-03-05T11:48:35;97108.75;;;-0.24;72.76
75312;BME280;63906;55.686;37.532;2023-03-05T11:53:37;97102.25;;;-0.35;73.23
75312;BME280;63906;55.686;37.532;2023-03-05T11:58:43;97112.84;;;-0.30;73.77
75312;BME280;63906;55.686;37.532;2023-03-05T12:03:46;97110.94;;;-0.42;72.29
75312;BME280;63906;55.686;37.532;2023-03-05T12:08:50;97136.13;;;-0.30;72.01
75312;BME280;63906;55.686;37.532;2023-03-05T12:14:23;97148.38;;;-0.17;72.27
75312;BME280;63906;55.686;37.532;2023-03-05T12:29:39;97189.50;;;-0.22;71.56
75312;BME280;63906;55.686;37.532;2023-03-05T12:44:43;97187.75;;;-0.36;72.37
75312;BME280;63906;55.686;37.532;2023-03-05T12:49:45;97211.84;;;-0.14;72.64
75312;BME280;63906;55.686;37.532;2023-03-05T12:55:12;97192.69;;;-0.20;70.60
75312;BME280;63906;55.686;37.532;2023-03-05T13:05:28;97222.81;;;-0.27;71.38
75312;BME280;63906;55.686;37.532;2023-03-05T13:10:30;97223.66;;;-0.41;71.16
75312;BME280;63906;55.686;37.532;2023-03-05T13:15:31;97231.41;;;-0.41;70.34
75312;BME280;63906;55.686;37.532;2023-03-05T13:20:39;97234.44;;;-0.52;70.82
75312;BME280;63906;55.686;37.532;2023-03-05T13:25:41;97233.44;;;-0.66;71.11
75312;BME280;63906;55.686;37.532;2023-03-05T13:30:51;97282.47;;;-0.43;70.63
75312;BME280;63906;55.686;37.532;2023-03-05T13:35:52;97281.31;;;-0.41;70.46
75312;BME280;63906;55.686;37.532;2023-03-05T13:46:33;97294.41;;;-0.42;70.08
75312;BME280;63906;55.686;37.532;2023-03-05T13:51:54;97306.44;;;-0.49;70.44
75312;BME280;63906;55.686;37.532;2023-03-05T13:57:00;97312.66;;;-0.59;70.92
75312;BME280;63906;55.686;37.532;2023-03-05T14:02:10;97302.53;;;-0.83;72.20
75312;BME280;63906;55.686;37.532;2023-03-05T14:07:36;97338.28;;;-0.72;71.96
75312;BME280;63906;55.686;37.532;2023-03-05T14:12:40;97312.72;;;-1.04;72.17
75312;BME280;63906;55.686;37.532;2023-03-05T14:17:42;97347.50;;;-0.92;72.38
75312;BME280;63906;55.686;37.532;2023-03-05T14:22:44;97337.38;;;-1.02;71.75
75312;BME280;63906;55.686;37.532;2023-03-05T14:27:46;97329.22;;;-1.14;71.85
75312;BME280;63906;55.686;37.532;2023-03-05T14:32:47;97368.16;;;-0.92;71.34
75312;BME280;63906;55.686;37.532;2023-03-05T14:37:50;97345.38;;;-1.12;71.93
75312;BME280;63906;55.686;37.532;2023-03-05T14:43:01;97376.34;;;-1.12;72.80
75312;BME280;63906;55.686;37.532;2023-03-05T14:48:03;97385.13;;;-0.98;71.25
75312;BME280;63906;55.686;37.532;2023-03-05T14:53:17;97386.94;;;-1.06;71.73
75312;BME280;63906;55.686;37.532;2023-03-05T14:58:20;97381.53;;;-1.20;71.13
75312;BME280;63906;55.686;37.532;2023-03-05T15:03:22;97379.81;;;-1.27;70.10
75312;BME280;63906;55.686;37.532;2023-03-05T15:08:28;97409.47;;;-1.23;69.45
75312;BME280;63906;55.686;37.532;2023-03-05T15:13:30;97420.06;;;-1.41;69.51
75312;BME280;63906;55.686;37.532;2023-03-05T15:18:31;97418.75;;;-1.45;70.51
75312;BME280;63906;55.686;37.532;2023-03-05T15:23:31;97432.97;;;-1.49;71.10
75312;BME280;63906;55.686;37.532;2023-03-05T15:28:37;97429.13;;;-1.53;70.95
75312;BME280;63906;55.686;37.532;2023-03-05T15:33:38;97448.47;;;-1.57;69.98
75312;BME280;63906;55.686;37.532;2023-03-05T15:38:40;97460.72;;;-1.51;70.70
75312;BME280;63906;55.686;37.532;2023-03-05T15:43:42;97428.53;;;-1.72;70.40
75312;BME280;63906;55.686;37.532;2023-03-05T15:48:42;97458.16;;;-1.59;71.05
75312;BME280;63906;55.686;37.532;2023-03-05T15:53:49;97467.47;;;-1.50;70.91
75312;BME280;63906;55.686;37.532;2023-03-05T15:58:49;97448.56;;;-1.74;70.09
75312;BME280;63906;55.686;37.532;2023-03-05T16:03:50;97477.78;;;-1.50;70.78
75312;BME280;63906;55.686;37.532;2023-03-05T16:08:55;97471.75;;;-1.74;71.34
75312;BME280;63906;55.686;37.532;2023-03-05T16:13:59;97449.13;;;-2.27;70.97
75312;BME280;63906;55.686;37.532;2023-03-05T16:19:04;97493.06;;;-2.37;72.37
75312;BME280;63906;55.686;37.532;2023-03-05T16:24:07;97500.81;;;-2.53;72.72
75312;BME280;63906;55.686;37.532;2023-03-05T16:29:08;97507.09;;;-2.39;73.35
75312;BME280;63906;55.686;37.532;2023-03-05T16:34:09;97492.25;;;-2.46;71.81
75312;BME280;63906;55.686;37.532;2023-03-05T16:39:13;97508.22;;;-2.26;72.07
75312;BME280;63906;55.686;37.532;2023-03-05T16:44:14;97499.19;;;-2.22;72.38
75312;BME280;63906;55.686;37.532;2023-03-05T16:49:15;97501.44;;;-2.43;70.97
75312;BME280;63906;55.686;37.532;2023-03-05T16:54:15;97482.28;;;-2.73;72.69
75312;BME280;63906;55.686;37.532;2023-03-05T16:59:16;97529.94;;;-2.45;74.06
75312;BME280;63906;55.686;37.532;2023-03-05T17:04:16;97540.25;;;-2.28;73.41
75312;BME280;63906;55.686;37.532;2023-03-05T17:09:17;97548.78;;;-2.11;72.36
75312;BME280;63906;55.686;37.532;2023-03-05T17:14:23;97531.25;;;-2.16;72.97
75312;BME280;63906;55.686;37.532;2023-03-05T17:19:23;97519.00;;;-2.22;73.09
75312;BME280;63906;55.686;37.532;2023-03-05T17:24:24;97553.31;;;-1.97;72.85
75312;BME280;63906;55.686;37.532;2023-03-05T17:29:25;97551.06;;;-2.08;72.87
75312;BME280;63906;55.686;37.532;2023-03-05T17:34:25;97556.22;;;-2.08;72.32
75312;BME280;63906;55.686;37.532;2023-03-05T17:39:26;97537.19;;;-2.07;72.15
75312;BME280;63906;55.686;37.532;2023-03-05T17:44:26;97537.38;;;-2.01;71.96
75312;BME280;63906;55.686;37.532;2023-03-05T17:49:27;97528.19;;;-2.03;71.95
75312;BME280;63906;55.686;37.532;2023-03-05T17:54:28;97536.22;;;-1.82;71.36
75312;BME280;63906;55.686;37.532;2023-03-05T17:59:28;97550.38;;;-1.62;71.64
75312;BME280;63906;55.686;37.532;2023-03-05T18:04:29;97541.69;;;-1.60;71.38
75312;BME280;63906;55.686;37.532;2023-03-05T18:09:29;97568.56;;;-1.47;71.85
75312;BME280;63906;55.686;37.532;2023-03-05T18:14:30;97565.34;;;-1.41;72.01
75312;BME280;63906;55.686;37.532;2023-03-05T18:19:30;97575.47;;;-1.31;71.65
75312;BME280;63906;55.686;37.532;2023-03-05T18:24:31;97575.28;;;-1.21;72.71
75312;BME280;63906;55.686;37.532;2023-03-05T18:29:32;97568.19;;;-1.19;72.82
75312;BME280;63906;55.686;37.532;2023-03-05T18:34:33;97533.56;;;-1.41;73.43
75312;BME280;63906;55.686;37.532;2023-03-05T18:39:33;97541.47;;;-1.34;74.15
75312;BME280;63906;55.686;37.532;2023-03-05T18:44:34;97575.91;;;-1.19;74.33
75312;BME280;63906;55.686;37.532;2023-03-05T18:49:35;97580.13;;;-1.26;73.35
75312;BME280;63906;55.686;37.532;2023-03-05T18:54:35;97574.50;;;-1.38;74.21
75312;BME280;63906;55.686;37.532;2023-03-05T18:59:36;97577.00;;;-1.61;73.54
75312;BME280;63906;55.686;37.532;2023-03-05T19:04:36;97572.97;;;-1.80;74.76
75312;BME280;63906;55.686;37.532;2023-03-05T19:10:04;97596.19;;;-1.80;75.54
75312;BME280;63906;55.686;37.532;2023-03-05T19:15:09;97579.25;;;-2.07;74.57
75312;BME280;63906;55.686;37.532;2023-03-05T19:20:11;97588.13;;;-2.01;75.44
75312;BME280;63906;55.686;37.532;2023-03-05T19:25:12;97553.75;;;-2.51;75.73
75312;BME280;63906;55.686;37.532;2023-03-05T19:30:13;97600.16;;;-2.26;76.55
75312;BME280;63906;55.686;37.532;2023-03-05T19:35:15;97588.06;;;-2.42;76.52
75312;BME280;63906;55.686;37.532;2023-03-05T19:40:16;97599.03;;;-2.24;77.05
75312;BME280;63906;55.686;37.532;2023-03-05T19:45:17;97596.31;;;-2.06;76.07
75312;BME280;63906;55.686;37.532;2023-03-05T19:50:18;97583.78;;;-1.84;76.92
75312;BME280;63906;55.686;37.532;2023-03-05T19:55:18;97582.75;;;-1.51;75.89
75312;BME280;63906;55.686;37.532;2023-03-05T20:00:22;97527.84;;;-1.84;75.74
75312;BME280;63906;55.686;37.532;2023-03-05T20:05:23;97579.53;;;-1.45;76.05
75312;BME280;63906;55.686;37.532;2023-03-05T20:10:26;97591.59;;;-1.37;75.67
75312;BME280;63906;55.686;37.532;2023-03-05T20:15:27;97590.94;;;-1.31;76.02
75312;BME280;63906;55.686;37.532;2023-03-05T20:20:28;97596.94;;;-1.39;76.07
75312;BME280;63906;55.686;37.532;2023-03-05T20:25:30;97597.41;;;-1.27;76.15
75312;BME280;63906;55.686;37.532;2023-03-05T20:30:31;97597.09;;;-1.24;77.48
75312;BME280;63906;55.686;37.532;2023-03-05T20:35:31;97580.03;;;-1.41;77.33
75312;BME280;63906;55.686;37.532;2023-03-05T20:40:32;97587.56;;;-1.23;76.69
75312;BME280;63906;55.686;37.532;2023-03-05T20:45:33;97581.28;;;-1.37;77.33
75312;BME280;63906;55.686;37.532;2023-03-05T20:50:33;97588.75;;;-1.42;77.44
75312;BME280;63906;55.686;37.532;2023-03-05T20:55:34;97604.03;;;-1.41;77.68
75312;BME280;63906;55.686;37.532;2023-03-05T21:00:35;97597.59;;;-1.37;78.20
75312;BME280;63906;55.686;37.532;2023-03-05T21:05:36;97600.16;;;-1.45;77.65
75312;BME280;63906;55.686;37.532;2023-03-05T21:10:37;97610.00;;;-1.32;77.54
75312;BME280;63906;55.686;37.532;2023-03-05T21:15:39;97613.84;;;-1.20;77.26
75312;BME280;63906;55.686;37.532;2023-03-05T21:20:40;97602.56;;;-1.27;77.43
75312;BME280;63906;55.686;37.532;2023-03-05T21:25:40;97619.00;;;-1.20;77.69
75312;BME280;63906;55.686;37.532;2023-03-05T21:30:43;97592.91;;;-1.33;77.14
75312;BME280;63906;55.686;37.532;2023-03-05T21:35:44;97589.50;;;-1.25;77.32
75312;BME280;63906;55.686;37.532;2023-03-05T21:40:45;97613.34;;;-1.15;77.24
75312;BME280;63906;55.686;37.532;2023-03-05T21:45:48;97589.81;;;-1.28;77.28
75312;BME280;63906;55.686;37.532;2023-03-05T21:50:51;97611.25;;;-1.12;77.15
75312;BME280;63906;55.686;37.532;2023-03-05T21:55:53;97610.47;;;-1.28;77.61
75312;BME280;63906;55.686;37.532;2023-03-05T22:01:04;97618.69;;;-1.25;77.24
75312;BME280;63906;55.686;37.532;2023-03-05T22:06:09;97599.97;;;-1.27;77.31
75312;BME280;63906;55.686;37.532;2023-03-05T22:11:13;97624.16;;;-1.12;77.37
75312;BME280;63906;55.686;37.532;2023-03-05T22:16:24;97626.75;;;-1.12;77.00
75312;BME280;63906;55.686;37.532;2023-03-05T22:21:26;97601.91;;;-1.21;77.03
75312;BME280;63906;55.686;37.532;2023-03-05T22:26:36;97614.47;;;-1.10;77.12
75312;BME280;63906;55.686;37.532;2023-03-05T22:31:37;97604.47;;;-1.13;77.18
75312;BME280;63906;55.686;37.532;2023-03-05T22:36:38;97603.84;;;-1.23;76.72
75312;BME280;63906;55.686;37.532;2023-03-05T22:41:40;97601.28;;;-1.31;77.24
75312;BME280;63906;55.686;37.532;2023-03-05T22:46:40;97594.53;;;-1.40;77.58
75312;BME280;63906;55.686;37.532;2023-03-05T22:51:41;97608.72;;;-1.36;78.12
75312;BME280;63906;55.686;37.532;2023-03-05T22:56:41;97606.78;;;-1.34;77.89
75312;BME280;63906;55.686;37.532;2023-03-05T23:01:42;97601.13;;;-1.29;77.05
75312;BME280;63906;55.686;37.532;2023-03-05T23:06:44;97619.00;;;-1.20;78.00
75312;BME280;63906;55.686;37.532;2023-03-05T23:11:45;97624.97;;;-1.19;76.48
75312;BME280;63906;55.686;37.532;2023-03-05T23:16:45;97623.19;;;-1.19;76.15
75312;BME280;63906;55.686;37.532;2023-03-05T23:21:46;97594.19;;;-1.37;76.23
75312;BME280;63906;55.686;37.532;2023-03-05T23:26:46;97605.81;;;-1.41;76.46
75312;BME280;63906;55.686;37.532;2023-03-05T23:31:47;97623.06;;;-1.33;75.91
75312;BME280;63906;55.686;37.532;2023-03-05T23:36:47;97617.41;;;-1.37;75.30
75312;BME280;63906;55.686;37.532;2023-03-05T23:41:48;97610.81;;;-1.56;75.16
75312;BME280;63906;55.686;37.532;2023-03-05T23:46:48;97608.88;;;-1.62;75.65
75312;BME280;63906;55.686;37.532;2023-03-05T23:51:49;97637.13;;;-1.52;75.48
75312;BME280;63906;55.686;37.532;2023-03-05T23:56:49;97570.72;;;-1.83;75.58
